createdAt,value
2018-07-27T00:02:01.544Z,5.07
2018-07-27T00:04:30.038Z,5.93
2018-07-27T00:06:58.492Z,5.80
2018-07-27T00:09:26.903Z,6.77
2018-07-27T00:11:55.339Z,5.23
2018-07-27T00:14:23.798Z,5.63
2018-07-27T00:16:52.293Z,5.53
2018-07-27T00:19:20.691Z,4.50
2018-07-27T00:21:49.236Z,4.83
2018-07-27T00:24:17.328Z,5.70
2018-07-27T00:26:45.772Z,5.40
2018-07-27T00:29:14.161Z,5.00
2018-07-27T00:31:42.620Z,4.40
2018-07-27T00:34:11.000Z,4.47
2018-07-27T00:36:39.463Z,5.30
2018-07-27T00:39:09.348Z,4.27
2018-07-27T00:41:37.803Z,4.80
2018-07-27T00:44:06.520Z,4.60
2018-07-27T00:46:34.987Z,5.40
2018-07-27T00:49:03.412Z,4.77
2018-07-27T00:51:31.786Z,5.37
2018-07-27T00:54:00.289Z,4.07
2018-07-27T00:56:28.817Z,4.77
2018-07-27T00:58:57.252Z,4.63
2018-07-27T01:01:25.723Z,4.80
2018-07-27T01:03:54.146Z,5.63
2018-07-27T01:06:22.617Z,5.50
2018-07-27T01:08:51.063Z,5.57
2018-07-27T01:11:19.499Z,5.50
2018-07-27T01:13:47.908Z,5.77
2018-07-27T01:16:16.361Z,4.97
2018-07-27T01:18:44.819Z,5.67
2018-07-27T01:21:12.962Z,5.77
2018-07-27T01:23:41.436Z,5.10
2018-07-27T01:26:09.843Z,5.57
2018-07-27T01:28:38.292Z,5.50
2018-07-27T01:31:06.761Z,5.83
2018-07-27T01:33:35.245Z,5.77
2018-07-27T01:36:03.642Z,5.50
2018-07-27T01:38:32.089Z,5.13
2018-07-27T01:41:00.474Z,5.10
2018-07-27T01:43:28.948Z,5.73
2018-07-27T01:45:57.337Z,4.80
2018-07-27T01:48:25.596Z,5.83
2018-07-27T01:50:54.081Z,5.60
2018-07-27T01:53:22.506Z,6.07
2018-07-27T01:55:50.899Z,6.13
2018-07-27T01:58:19.353Z,6.07
2018-07-27T02:00:47.768Z,5.93
2018-07-27T02:03:16.200Z,6.23
2018-07-27T02:05:44.584Z,5.63
2018-07-27T02:08:13.248Z,5.83
2018-07-27T02:10:41.652Z,5.83
2018-07-27T02:13:10.212Z,5.73
2018-07-27T02:15:38.514Z,6.63
2018-07-27T02:18:06.946Z,5.70
2018-07-27T02:20:35.359Z,6.10
2018-07-27T02:23:03.804Z,5.67
2018-07-27T02:25:32.000Z,5.30
2018-07-27T02:28:00.447Z,5.60
2018-07-27T02:30:29.099Z,6.70
2018-07-27T02:32:57.552Z,6.00
2018-07-27T02:35:26.025Z,6.00
2018-07-27T02:37:54.479Z,5.27
2018-07-27T02:40:22.889Z,5.90
2018-07-27T02:42:51.397Z,6.63
2018-07-27T02:45:19.819Z,6.17
2018-07-27T02:47:49.663Z,5.77
2018-07-27T02:50:19.031Z,6.30
2018-07-27T02:52:47.616Z,6.00
2018-07-27T02:55:16.136Z,6.50
2018-07-27T02:57:44.540Z,6.17
2018-07-27T03:00:12.972Z,7.10
2018-07-27T03:02:41.386Z,6.40
2018-07-27T03:05:09.852Z,6.30
2018-07-27T03:07:38.304Z,6.77
2018-07-27T03:10:07.197Z,7.07
2018-07-27T03:12:35.657Z,6.73
2018-07-27T03:15:04.142Z,5.40
2018-07-27T03:17:32.652Z,5.70
2018-07-27T03:20:01.049Z,5.90
2018-07-27T03:22:29.504Z,5.73
2018-07-27T03:24:57.896Z,5.90
2018-07-27T03:27:26.363Z,5.40
2018-07-27T03:29:54.751Z,5.57
2018-07-27T03:32:23.194Z,6.10
2018-07-27T03:34:51.656Z,6.33
2018-07-27T03:37:20.089Z,6.10
2018-07-27T03:39:48.544Z,5.87
2018-07-27T03:42:16.961Z,5.53
2018-07-27T03:44:45.389Z,6.17
2018-07-27T03:47:13.787Z,6.37
2018-07-27T03:49:42.294Z,6.30
2018-07-27T03:52:10.689Z,6.40
2018-07-27T03:54:39.120Z,6.83
2018-07-27T03:57:07.694Z,6.67
2018-07-27T03:59:36.158Z,6.37
2018-07-27T04:02:04.634Z,6.47
2018-07-27T04:04:33.161Z,5.60
2018-07-27T04:07:01.616Z,6.50
2018-07-27T04:09:30.030Z,6.73
2018-07-27T04:11:58.414Z,7.13
2018-07-27T04:14:26.852Z,7.20
2018-07-27T04:16:55.224Z,6.30
2018-07-27T04:19:23.672Z,7.00
2018-07-27T04:21:52.112Z,6.37
2018-07-27T04:24:20.587Z,6.47
2018-07-27T04:26:49.011Z,7.03
2018-07-27T04:29:17.461Z,6.93
2018-07-27T04:31:45.904Z,7.17
2018-07-27T04:34:14.358Z,7.60
2018-07-27T04:36:42.784Z,6.87
2018-07-27T04:39:11.830Z,6.60
2018-07-27T04:41:40.321Z,7.03
2018-07-27T04:44:08.763Z,7.73
2018-07-27T04:46:37.201Z,6.87
2018-07-27T04:49:05.801Z,6.97
2018-07-27T04:51:34.287Z,7.40
2018-07-27T04:56:38.131Z,6.77
2018-07-27T04:59:06.487Z,7.80
2018-07-27T05:01:34.956Z,7.70
2018-07-27T05:04:03.427Z,7.50
2018-07-27T05:06:31.902Z,7.00
2018-07-27T05:09:05.819Z,6.20
2018-07-27T05:11:34.289Z,7.10
2018-07-27T05:14:02.787Z,6.17
2018-07-27T05:16:31.187Z,7.70
2018-07-27T05:18:59.464Z,6.03
2018-07-27T05:21:28.076Z,5.33
2018-07-27T05:23:56.799Z,6.17
2018-07-27T05:26:25.236Z,6.60
2018-07-27T05:28:53.831Z,6.03
2018-07-27T05:31:22.281Z,5.10
2018-07-27T05:33:50.767Z,6.90
2018-07-27T05:36:19.316Z,7.40
2018-07-27T05:38:47.936Z,8.20
2018-07-27T05:41:16.467Z,10.50
2018-07-27T05:43:44.908Z,8.83
2018-07-27T05:46:13.437Z,9.67
2018-07-27T05:48:41.911Z,8.87
2018-07-27T05:51:10.576Z,8.70
2018-07-27T05:53:39.305Z,7.83
2018-07-27T05:56:07.780Z,7.20
2018-07-27T05:58:36.264Z,6.70
2018-07-27T06:01:05.040Z,7.00
2018-07-27T06:03:33.524Z,6.57
2018-07-27T06:06:01.988Z,7.10
2018-07-27T06:08:30.481Z,6.70
2018-07-27T06:10:59.043Z,7.03
2018-07-27T06:13:27.618Z,6.70
2018-07-27T06:15:57.703Z,6.63
2018-07-27T06:18:26.148Z,6.70
2018-07-27T06:20:54.774Z,7.20
2018-07-27T06:23:23.306Z,6.70
2018-07-27T06:25:51.827Z,6.67
2018-07-27T06:28:20.396Z,6.67
2018-07-27T06:30:49.015Z,6.33
2018-07-27T06:33:17.634Z,7.47
2018-07-27T06:35:46.162Z,6.70
2018-07-27T06:38:14.737Z,6.10
2018-07-27T06:40:43.359Z,6.13
2018-07-27T06:43:11.870Z,5.70
2018-07-27T06:45:40.360Z,6.47
2018-07-27T06:48:13.088Z,6.30
2018-07-27T06:50:41.643Z,5.90
2018-07-27T06:53:10.117Z,6.23
2018-07-27T06:55:38.685Z,5.80
2018-07-27T06:58:07.185Z,5.60
2018-07-27T07:00:35.800Z,4.30
2018-07-27T07:03:04.494Z,4.40
2018-07-27T07:05:33.081Z,4.70
2018-07-27T07:08:01.734Z,4.93
2018-07-27T07:10:30.262Z,5.00
2018-07-27T07:12:58.829Z,5.47
2018-07-27T07:15:27.328Z,5.17
2018-07-27T07:17:55.875Z,4.70
2018-07-27T07:20:24.604Z,5.80
2018-07-27T07:22:53.551Z,5.00
2018-07-27T07:25:22.200Z,4.97
2018-07-27T07:27:51.027Z,4.70
2018-07-27T07:30:19.549Z,4.80
2018-07-27T07:32:48.124Z,4.70
2018-07-27T07:35:16.786Z,4.10
2018-07-27T07:37:45.406Z,4.17
2018-07-27T07:43:07.474Z,4.90
2018-07-27T07:45:36.111Z,4.60
2018-07-27T07:48:04.651Z,4.67
2018-07-27T07:50:35.015Z,3.80
2018-07-27T07:53:04.576Z,4.73
2018-07-27T07:55:33.099Z,4.90
2018-07-27T07:58:01.734Z,4.70
2018-07-27T08:00:30.404Z,5.17
2018-07-27T08:02:59.009Z,4.80
2018-07-27T08:05:27.745Z,4.93
2018-07-27T08:07:56.836Z,4.93
2018-07-27T08:10:25.717Z,5.33
2018-07-27T08:12:54.653Z,4.80
2018-07-27T08:15:23.252Z,4.60
2018-07-27T08:17:51.774Z,4.70
2018-07-27T08:20:20.340Z,4.60
2018-07-27T08:22:48.909Z,4.73
2018-07-27T08:25:17.486Z,4.80
2018-07-27T08:27:47.038Z,4.60
2018-07-27T08:30:15.693Z,4.63
2018-07-27T08:32:44.531Z,4.60
2018-07-27T08:35:13.066Z,4.60
2018-07-27T08:37:41.619Z,4.23
2018-07-27T08:40:10.184Z,4.90
2018-07-27T08:45:31.840Z,5.17
2018-07-27T08:48:00.420Z,4.70
2018-07-27T08:50:29.135Z,4.03
2018-07-27T08:52:57.943Z,4.80
2018-07-27T08:55:26.494Z,4.60
2018-07-27T08:57:55.085Z,5.13
2018-07-27T09:00:33.389Z,5.23
2018-07-27T09:03:01.918Z,4.37
2018-07-27T09:05:30.475Z,3.77
2018-07-27T09:07:59.051Z,4.20
2018-07-27T09:10:27.549Z,4.00
2018-07-27T09:12:56.076Z,4.07
2018-07-27T09:15:24.618Z,4.03
2018-07-27T09:17:53.138Z,3.80
2018-07-27T09:20:21.788Z,4.00
2018-07-27T09:22:50.581Z,3.97
2018-07-27T09:25:19.371Z,3.97
2018-07-27T09:27:47.756Z,4.20
2018-07-27T09:30:16.372Z,3.60
2018-07-27T09:32:49.774Z,3.87
2018-07-27T09:35:18.396Z,4.00
2018-07-27T09:37:46.971Z,3.90
2018-07-27T09:40:16.130Z,4.33
2018-07-27T09:42:44.764Z,3.53
2018-07-27T09:45:13.429Z,4.10
2018-07-27T09:47:41.903Z,4.10
2018-07-27T09:50:10.428Z,4.00
2018-07-27T09:52:39.186Z,4.07
2018-07-27T09:55:07.751Z,4.00
2018-07-27T09:57:36.325Z,4.20
2018-07-27T10:00:05.297Z,3.80
2018-07-27T10:02:35.176Z,3.87
2018-07-27T10:05:03.912Z,3.93
2018-07-27T10:07:32.546Z,4.03
2018-07-27T10:10:01.058Z,3.50
2018-07-27T10:12:29.677Z,4.03
2018-07-27T10:14:58.294Z,4.40
2018-07-27T10:17:26.831Z,4.10
2018-07-27T10:19:55.429Z,4.43
2018-07-27T10:22:23.997Z,3.70
2018-07-27T10:24:52.611Z,4.07
2018-07-27T10:27:21.174Z,3.73
2018-07-27T10:29:49.856Z,3.83
2018-07-27T10:32:18.424Z,3.90
2018-07-27T10:34:46.895Z,3.73
2018-07-27T10:37:15.477Z,3.70
2018-07-27T10:39:44.093Z,4.50
2018-07-27T10:42:12.670Z,4.67
2018-07-27T10:44:41.150Z,4.20
2018-07-27T10:47:09.975Z,4.57
2018-07-27T10:49:38.576Z,4.13
2018-07-27T10:52:07.171Z,4.67
2018-07-27T10:54:35.696Z,4.40
2018-07-27T10:57:04.708Z,4.17
2018-07-27T10:59:33.535Z,4.03
2018-07-27T11:02:02.076Z,3.80
2018-07-27T11:04:30.587Z,3.93
2018-07-27T11:06:59.169Z,4.27
2018-07-27T11:09:27.702Z,4.30
2018-07-27T11:11:56.420Z,4.43
2018-07-27T11:14:25.000Z,4.60
2018-07-27T11:16:53.552Z,4.17
2018-07-27T11:19:22.114Z,4.70
2018-07-27T11:21:50.736Z,4.60
2018-07-27T11:24:19.343Z,4.20
2018-07-27T11:26:48.019Z,4.87
2018-07-27T11:29:16.614Z,4.40
2018-07-27T11:31:45.236Z,4.00
2018-07-27T11:34:13.791Z,3.80
2018-07-27T11:36:42.505Z,4.30
2018-07-27T11:39:12.397Z,4.40
2018-07-27T11:41:41.164Z,4.37
2018-07-27T11:44:09.752Z,4.30
2018-07-27T11:46:38.787Z,4.27
2018-07-27T11:49:07.855Z,3.83
2018-07-27T11:51:36.425Z,4.20
2018-07-27T11:54:05.386Z,3.93
2018-07-27T11:56:33.992Z,4.73
2018-07-27T11:59:02.730Z,4.83
2018-07-27T12:01:31.358Z,4.20
2018-07-27T12:04:00.093Z,3.83
2018-07-27T12:06:28.694Z,4.43
2018-07-27T12:08:58.293Z,4.20
2018-07-27T12:11:26.915Z,4.53
2018-07-27T12:13:55.642Z,4.00
2018-07-27T12:16:24.138Z,4.87
2018-07-27T12:18:52.717Z,4.20
2018-07-27T12:21:21.498Z,4.40
2018-07-27T12:23:49.924Z,4.40
2018-07-27T12:26:18.421Z,4.30
2018-07-27T12:28:47.011Z,4.23
2018-07-27T12:31:15.216Z,4.10
2018-07-27T12:33:43.753Z,4.67
2018-07-27T12:36:12.389Z,4.67
2018-07-27T12:38:41.019Z,5.37
2018-07-27T12:41:09.523Z,4.50
2018-07-27T12:43:38.082Z,5.10
2018-07-27T12:46:06.739Z,4.87
2018-07-27T12:48:35.423Z,4.70
2018-07-27T12:51:03.960Z,4.50
2018-07-27T12:53:32.729Z,5.13
2018-07-27T12:56:01.600Z,4.50
2018-07-27T12:58:30.165Z,5.07
2018-07-27T13:00:58.697Z,4.40
2018-07-27T13:03:27.410Z,5.10
2018-07-27T13:05:55.977Z,4.60
2018-07-27T13:08:24.509Z,3.83
2018-07-27T13:10:53.219Z,4.33
2018-07-27T13:13:21.869Z,3.50
2018-07-27T13:15:50.414Z,3.80
2018-07-27T13:18:19.072Z,3.93
2018-07-27T13:20:53.111Z,4.37
2018-07-27T13:23:22.265Z,4.70
2018-07-27T13:26:25.378Z,4.10
2018-07-27T13:28:39.681Z,4.50
2018-07-27T13:31:08.826Z,4.63
2018-07-27T13:33:37.345Z,4.60
2018-07-27T13:36:05.906Z,4.07
2018-07-27T13:38:34.660Z,5.00
2018-07-27T13:41:03.382Z,4.40
2018-07-27T13:43:31.979Z,4.80
2018-07-27T13:46:00.524Z,4.13
2018-07-27T13:48:29.105Z,4.60
2018-07-27T13:50:59.236Z,5.10
2018-07-27T13:53:28.740Z,4.40
2018-07-27T13:55:58.673Z,4.53
2018-07-27T13:58:27.674Z,5.00
2018-07-27T14:00:56.195Z,4.90
2018-07-27T14:03:24.811Z,5.07
2018-07-27T14:05:53.320Z,4.40
2018-07-27T14:08:21.861Z,4.47
2018-07-27T14:10:51.076Z,4.43
2018-07-27T14:13:19.647Z,4.47
2018-07-27T14:15:48.205Z,4.43
2018-07-27T14:18:17.112Z,4.30
2018-07-27T14:20:45.719Z,3.90
2018-07-27T14:23:14.318Z,4.47
2018-07-27T14:25:42.895Z,5.07
2018-07-27T14:28:11.493Z,4.60
2018-07-27T14:30:40.139Z,4.07
2018-07-27T14:33:08.749Z,3.90
2018-07-27T14:35:37.617Z,4.37
2018-07-27T14:38:06.226Z,4.40
2018-07-27T14:40:34.848Z,4.20
2018-07-27T14:43:03.461Z,4.50
2018-07-27T14:45:32.093Z,4.10
2018-07-27T14:48:00.689Z,3.90
2018-07-27T14:50:29.697Z,3.73
2018-07-27T14:52:58.423Z,3.60
2018-07-27T14:55:26.997Z,4.07
2018-07-27T14:57:55.640Z,3.93
2018-07-27T15:00:24.256Z,3.10
2018-07-27T15:02:53.381Z,3.37
2018-07-27T15:05:22.492Z,3.50
2018-07-27T15:07:51.505Z,3.93
2018-07-27T15:10:20.042Z,4.00
2018-07-27T15:12:48.682Z,3.93
2018-07-27T15:15:17.311Z,3.07
2018-07-27T15:17:45.853Z,3.30
2018-07-27T15:20:14.539Z,3.37
2018-07-27T15:22:43.116Z,3.60
2018-07-27T15:25:11.615Z,3.73
2018-07-27T15:27:40.400Z,3.70
2018-07-27T15:30:09.390Z,3.23
2018-07-27T15:32:37.935Z,4.00
2018-07-27T15:35:06.597Z,4.10
2018-07-27T15:37:35.985Z,3.50
2018-07-27T15:40:04.751Z,3.50
2018-07-27T15:42:33.314Z,3.80
2018-07-27T15:45:01.887Z,3.73
2018-07-27T15:47:30.582Z,3.70
2018-07-27T15:49:59.128Z,3.67
2018-07-27T15:52:27.778Z,3.70
2018-07-27T15:54:59.409Z,4.00
2018-07-27T15:57:28.143Z,2.87
2018-07-27T15:59:56.695Z,3.87
2018-07-27T16:02:25.718Z,3.67
2018-07-27T16:04:54.330Z,3.90
2018-07-27T16:07:31.116Z,3.67
2018-07-27T16:10:00.340Z,3.77
2018-07-27T16:12:29.104Z,3.80
2018-07-27T16:15:00.984Z,3.53
2018-07-27T16:17:29.576Z,3.63
2018-07-27T16:19:58.431Z,3.60
2018-07-27T16:22:27.133Z,3.40
2018-07-27T16:24:56.416Z,3.40
2018-07-27T16:27:29.347Z,3.90
2018-07-27T16:29:58.606Z,3.83
2018-07-27T16:32:32.733Z,3.60
2018-07-27T16:35:02.793Z,3.70
2018-07-27T16:37:31.885Z,3.60
2018-07-27T16:42:49.793Z,3.50
2018-07-27T16:45:18.506Z,4.10
2018-07-27T16:47:47.189Z,3.80
2018-07-27T16:50:16.624Z,3.97
2018-07-27T16:52:45.178Z,4.10
2018-07-27T16:55:13.697Z,3.93
2018-07-27T16:57:47.355Z,3.70
2018-07-27T17:00:16.380Z,3.73
2018-07-27T17:02:45.220Z,4.47
2018-07-27T17:05:20.092Z,4.13
2018-07-27T17:07:56.323Z,3.90
2018-07-27T17:10:24.877Z,3.70
2018-07-27T17:12:55.025Z,3.63
2018-07-27T17:15:23.754Z,3.80
2018-07-27T17:17:52.757Z,3.50
2018-07-27T17:20:21.325Z,4.27
2018-07-27T17:22:50.472Z,4.10
2018-07-27T17:25:19.315Z,4.23
2018-07-27T17:27:48.127Z,3.70
2018-07-27T17:30:17.857Z,3.40
2018-07-27T17:33:01.541Z,4.00
2018-07-27T17:37:43.077Z,4.47
2018-07-27T17:40:23.130Z,3.90
2018-07-27T17:42:59.328Z,3.90
2018-07-27T17:45:48.882Z,4.13
2018-07-27T17:49:42.876Z,3.60
2018-07-27T17:53:18.981Z,4.43
2018-07-27T17:55:47.429Z,4.10
2018-07-27T17:58:15.594Z,4.27
2018-07-27T18:00:43.995Z,4.00
2018-07-27T18:03:12.492Z,4.30
2018-07-27T18:05:41.014Z,6.03
2018-07-27T18:08:09.560Z,4.10
2018-07-27T18:10:38.008Z,4.03
2018-07-27T18:13:06.542Z,4.20
2018-07-27T18:15:34.933Z,4.77
2018-07-27T18:18:03.385Z,4.57
2018-07-27T18:20:31.867Z,4.73
2018-07-27T18:23:00.316Z,4.20
2018-07-27T18:25:28.768Z,4.40
2018-07-27T18:27:57.206Z,4.27
2018-07-27T18:30:25.792Z,3.97
2018-07-27T18:32:54.229Z,4.27
2018-07-27T18:35:22.733Z,3.93
2018-07-27T18:37:51.302Z,4.73
2018-07-27T18:40:19.896Z,4.67
2018-07-27T18:42:48.319Z,4.37
2018-07-27T18:45:16.956Z,4.00
2018-07-27T18:47:45.429Z,5.13
2018-07-27T18:50:13.875Z,4.40
2018-07-27T18:52:42.348Z,4.60
2018-07-27T18:55:10.794Z,4.60
2018-07-27T18:57:39.280Z,4.73
2018-07-27T19:00:08.225Z,5.40
2018-07-27T19:02:36.700Z,5.43
2018-07-27T19:05:05.278Z,4.67
2018-07-27T19:07:33.682Z,5.57
2018-07-27T19:10:02.170Z,6.23
2018-07-27T19:12:30.621Z,5.17
2018-07-27T19:14:59.044Z,6.60
2018-07-27T19:17:27.637Z,6.53
2018-07-27T19:19:56.047Z,6.60
2018-07-27T19:22:24.516Z,7.07
2018-07-27T19:24:53.107Z,7.00
2018-07-27T19:27:21.528Z,8.93
2018-07-27T19:29:49.991Z,7.20
2018-07-27T19:32:18.440Z,6.00
2018-07-27T19:34:46.870Z,5.73
2018-07-27T19:37:15.384Z,8.07
2018-07-27T19:39:43.835Z,6.70
2018-07-27T19:42:12.376Z,5.90
2018-07-27T19:44:40.885Z,6.47
2018-07-27T19:47:09.807Z,6.43
2018-07-27T19:49:38.356Z,5.50
2018-07-27T19:52:06.843Z,5.50
2018-07-27T19:54:35.317Z,5.20
2018-07-27T19:57:03.900Z,5.20
2018-07-27T19:59:32.305Z,5.30
2018-07-27T20:02:00.845Z,5.67
2018-07-27T20:04:29.604Z,4.70
2018-07-27T20:06:58.198Z,4.53
2018-07-27T20:09:26.637Z,4.93
2018-07-27T20:11:55.119Z,5.57
2018-07-27T20:14:23.581Z,5.00
2018-07-27T20:16:52.027Z,6.17
2018-07-27T20:19:20.514Z,5.87
2018-07-27T20:21:48.982Z,5.77
2018-07-27T20:24:17.417Z,5.70
2018-07-27T20:26:46.170Z,5.50
2018-07-27T20:29:14.606Z,5.33
2018-07-27T20:31:43.097Z,6.10
2018-07-27T20:34:11.576Z,4.53
2018-07-27T20:36:40.068Z,5.20
2018-07-27T20:39:10.921Z,6.93
2018-07-27T20:41:39.378Z,6.80
2018-07-27T20:44:07.881Z,6.70
2018-07-27T20:46:36.555Z,6.60
2018-07-27T20:49:05.341Z,6.60
2018-07-27T20:51:33.909Z,6.33
2018-07-27T20:54:02.557Z,7.83
2018-07-27T20:56:30.975Z,7.40
2018-07-27T20:58:59.090Z,7.30
2018-07-27T21:01:27.516Z,7.50
2018-07-27T21:03:55.925Z,8.17
2018-07-27T21:06:24.373Z,8.07
2018-07-27T21:08:52.839Z,6.57
2018-07-27T21:11:21.236Z,6.47
2018-07-27T21:13:49.831Z,6.00
2018-07-27T21:16:18.536Z,6.00
2018-07-27T21:18:47.050Z,6.97
2018-07-27T21:21:15.487Z,12.50
2018-07-27T21:23:43.926Z,9.03
2018-07-27T21:26:12.363Z,9.93
2018-07-27T21:28:40.788Z,10.00
2018-07-27T21:31:09.223Z,9.90
2018-07-27T21:33:37.711Z,8.87
2018-07-27T21:36:06.204Z,9.00
2018-07-27T21:38:34.681Z,7.30
2018-07-27T21:41:03.147Z,7.50
2018-07-27T21:43:31.612Z,6.47
2018-07-27T21:46:00.189Z,7.47
2018-07-27T21:48:28.543Z,7.60
2018-07-27T21:50:56.932Z,7.50
2018-07-27T21:53:25.364Z,8.00
2018-07-27T21:55:53.767Z,7.80
2018-07-27T21:58:22.287Z,8.00
2018-07-27T22:00:50.736Z,8.40
2018-07-27T22:03:19.165Z,7.93
2018-07-27T22:05:47.658Z,7.20
2018-07-27T22:08:16.095Z,8.57
2018-07-27T22:10:44.598Z,7.50
2018-07-27T22:13:13.121Z,7.90
2018-07-27T22:15:41.489Z,8.07
2018-07-27T22:18:09.976Z,6.17
2018-07-27T22:20:38.385Z,5.83
2018-07-27T22:23:06.856Z,5.67
2018-07-27T22:25:35.326Z,5.33
2018-07-27T22:28:03.853Z,5.83
2018-07-27T22:30:32.292Z,5.83
2018-07-27T22:33:00.804Z,5.10
2018-07-27T22:35:29.196Z,5.63
2018-07-27T22:37:57.660Z,5.90
2018-07-27T22:40:26.148Z,5.77
2018-07-27T22:42:54.599Z,5.80
2018-07-27T22:45:23.007Z,5.77
2018-07-27T22:47:51.486Z,5.60
2018-07-27T22:50:19.897Z,6.33
2018-07-27T22:52:48.319Z,5.37
2018-07-27T22:55:17.056Z,5.30
2018-07-27T22:57:45.547Z,5.50
2018-07-27T23:00:15.072Z,5.77
2018-07-27T23:02:43.807Z,5.27
2018-07-27T23:05:13.040Z,5.67
2018-07-27T23:07:41.466Z,5.63
2018-07-27T23:10:10.897Z,5.37
2018-07-27T23:12:39.636Z,5.10
2018-07-27T23:15:09.923Z,5.33
2018-07-27T23:17:38.380Z,5.60
2018-07-27T23:20:11.892Z,6.40
2018-07-27T23:22:40.479Z,6.17
2018-07-27T23:25:09.024Z,5.70
2018-07-27T23:27:37.694Z,5.07
2018-07-27T23:30:08.220Z,5.67
2018-07-27T23:32:36.639Z,4.80
2018-07-27T23:35:05.212Z,6.40
2018-07-27T23:37:33.650Z,6.37
2018-07-27T23:40:02.117Z,7.30
2018-07-27T23:42:30.515Z,6.73
2018-07-27T23:44:59.037Z,7.20
2018-07-27T23:47:27.460Z,6.53
2018-07-27T23:49:55.890Z,6.30
2018-07-27T23:52:24.327Z,6.60
2018-07-27T23:54:52.759Z,6.17
2018-07-27T23:57:21.224Z,5.80
2018-07-27T23:59:49.653Z,5.23
